sensor_id;sensor_type;location;lat;lon;timestamp;pressure;altitude;pressure_sealevel;temperature;humidity
28448;BME280;15675;52.870;-1.416;2023-08-21T00:00:33;101634.34;;;18.62;95.63
28448;BME280;15675;52.870;-1.416;2023-08-21T00:02:59;101628.03;;;18.72;95.57
28448;BME280;15675;52.870;-1.416;2023-08-21T00:05:25;101632.03;;;18.40;94.87
28448;BME280;15675;52.870;-1.416;2023-08-21T00:07:50;101640.16;;;18.23;96.60
28448;BME280;15675;52.870;-1.416;2023-08-21T00:10:16;101626.97;;;18.26;96.92
28448;BME280;15675;52.870;-1.416;2023-08-21T00:12:42;101640.19;;;18.20;97.67
28448;BME280;15675;52.870;-1.416;2023-08-21T00:15:08;101632.22;;;18.26;98.07
28448;BME280;15675;52.870;-1.416;2023-08-21T00:17:35;101634.75;;;18.33;97.90
28448;BME280;15675;52.870;-1.416;2023-08-21T00:20:01;101638.59;;;18.10;99.06
28448;BME280;15675;52.870;-1.416;2023-08-21T00:22:27;101640.28;;;18.13;98.79
28448;BME280;15675;52.870;-1.416;2023-08-21T00:24:52;101635.16;;;18.03;100.00
28448;BME280;15675;52.870;-1.416;2023-08-21T00:27:18;101638.59;;;18.10;99.91
28448;BME280;15675;52.870;-1.416;2023-08-21T00:29:44;101640.56;;;17.91;100.00
28448;BME280;15675;52.870;-1.416;2023-08-21T00:32:09;101642.34;;;17.90;100.00
28448;BME280;15675;52.870;-1.416;2023-08-21T00:34:37;101653.41;;;18.13;100.00
28448;BME280;15675;52.870;-1.416;2023-08-21T00:37:02;101638.28;;;18.32;99.33
28448;BME280;15675;52.870;-1.416;2023-08-21T00:39:28;101649.13;;;18.69;97.30
28448;BME280;15675;52.870;-1.416;2023-08-21T00:41:53;101637.66;;;18.73;94.85
28448;BME280;15675;52.870;-1.416;2023-08-21T00:44:19;101634.63;;;18.43;94.21
28448;BME280;15675;52.870;-1.416;2023-08-21T00:46:44;101640.03;;;18.31;94.47
28448;BME280;15675;52.870;-1.416;2023-08-21T00:49:10;101644.59;;;18.18;95.72
28448;BME280;15675;52.870;-1.416;2023-08-21T00:51:36;101644.13;;;17.84;97.75
28448;BME280;15675;52.870;-1.416;2023-08-21T00:54:02;101641.44;;;17.93;99.24
28448;BME280;15675;52.870;-1.416;2023-08-21T00:56:27;101641.22;;;18.08;98.00
28448;BME280;15675;52.870;-1.416;2023-08-21T00:58:53;101642.25;;;17.97;98.60
28448;BME280;15675;52.870;-1.416;2023-08-21T01:01:19;101642.97;;;18.09;98.56
28448;BME280;15675;52.870;-1.416;2023-08-21T01:03:48;101640.53;;;17.94;98.31
28448;BME280;15675;52.870;-1.416;2023-08-21T01:06:14;101646.56;;;18.02;98.82
28448;BME280;15675;52.870;-1.416;2023-08-21T01:09:00;101646.69;;;17.88;98.05
28448;BME280;15675;52.870;-1.416;2023-08-21T01:11:47;101655.97;;;17.41;100.00
28448;BME280;15675;52.870;-1.416;2023-08-21T01:14:36;101662.28;;;17.18;100.00
28448;BME280;15675;52.870;-1.416;2023-08-21T01:17:09;101660.50;;;17.23;100.00
28448;BME280;15675;52.870;-1.416;2023-08-21T01:19:40;101654.97;;;17.51;100.00
28448;BME280;15675;52.870;-1.416;2023-08-21T01:22:07;101660.41;;;17.36;100.00
28448;BME280;15675;52.870;-1.416;2023-08-21T01:24:32;101662.09;;;17.41;100.00
28448;BME280;15675;52.870;-1.416;2023-08-21T01:26:58;101658.56;;;17.44;100.00
28448;BME280;15675;52.870;-1.416;2023-08-21T01:29:24;101661.19;;;17.42;100.00
28448;BME280;15675;52.870;-1.416;2023-08-21T01:32:13;101658.28;;;17.72;100.00
28448;BME280;15675;52.870;-1.416;2023-08-21T01:34:41;101657.31;;;17.79;100.00
28448;BME280;15675;52.870;-1.416;2023-08-21T01:37:08;101659.50;;;17.37;100.00
28448;BME280;15675;52.870;-1.416;2023-08-21T01:39:33;101657.50;;;17.62;100.00
28448;BME280;15675;52.870;-1.416;2023-08-21T01:41:59;101654.31;;;17.32;100.00
28448;BME280;15675;52.870;-1.416;2023-08-21T01:44:25;101663.97;;;17.30;100.00
28448;BME280;15675;52.870;-1.416;2023-08-21T01:46:52;101657.03;;;17.20;100.00
28448;BME280;15675;52.870;-1.416;2023-08-21T01:49:18;101667.56;;;17.15;100.00
28448;BME280;15675;52.870;-1.416;2023-08-21T01:51:45;101659.66;;;17.20;100.00
28448;BME280;15675;52.870;-1.416;2023-08-21T01:54:11;101659.69;;;17.15;100.00
28448;BME280;15675;52.870;-1.416;2023-08-21T01:56:36;101661.50;;;17.08;100.00
28448;BME280;15675;52.870;-1.416;2023-08-21T01:59:04;101671.06;;;17.14;100.00
28448;BME280;15675;52.870;-1.416;2023-08-21T02:01:30;101670.13;;;17.24;100.00
28448;BME280;15675;52.870;-1.416;2023-08-21T02:03:56;101668.06;;;17.53;100.00
28448;BME280;15675;52.870;-1.416;2023-08-21T02:06:21;101667.19;;;17.54;100.00
28448;BME280;15675;52.870;-1.416;2023-08-21T02:08:48;101663.88;;;17.38;100.00
28448;BME280;15675;52.870;-1.416;2023-08-21T02:11:14;101668.31;;;17.30;100.00
28448;BME280;15675;52.870;-1.416;2023-08-21T02:13:40;101674.53;;;17.19;100.00
28448;BME280;15675;52.870;-1.416;2023-08-21T02:16:05;101673.53;;;17.33;100.00
28448;BME280;15675;52.870;-1.416;2023-08-21T02:18:31;101670.91;;;17.33;100.00
28448;BME280;15675;52.870;-1.416;2023-08-21T02:20:56;101671.84;;;17.25;100.00
28448;BME280;15675;52.870;-1.416;2023-08-21T02:23:22;101673.84;;;16.99;100.00
28448;BME280;15675;52.870;-1.416;2023-08-21T02:25:49;101684.19;;;17.14;100.00
28448;BME280;15675;52.870;-1.416;2023-08-21T02:28:15;101676.22;;;17.27;100.00
28448;BME280;15675;52.870;-1.416;2023-08-21T02:30:41;101674.50;;;17.22;100.00
28448;BME280;15675;52.870;-1.416;2023-08-21T02:33:06;101673.69;;;17.17;100.00
28448;BME280;15675;52.870;-1.416;2023-08-21T02:35:32;101668.34;;;17.27;100.00
28448;BME280;15675;52.870;-1.416;2023-08-21T02:37:57;101672.06;;;17.02;100.00
28448;BME280;15675;52.870;-1.416;2023-08-21T02:40:23;101666.81;;;17.01;100.00
28448;BME280;15675;52.870;-1.416;2023-08-21T02:42:48;101666.06;;;16.83;100.00
28448;BME280;15675;52.870;-1.416;2023-08-21T02:45:14;101674.66;;;17.05;100.00
28448;BME280;15675;52.870;-1.416;2023-08-21T02:47:40;101664.13;;;17.08;100.00
28448;BME280;15675;52.870;-1.416;2023-08-21T02:50:07;101669.28;;;17.21;100.00
28448;BME280;15675;52.870;-1.416;2023-08-21T02:52:34;101663.22;;;17.13;100.00
28448;BME280;15675;52.870;-1.416;2023-08-21T02:55:00;101674.50;;;17.22;100.00
28448;BME280;15675;52.870;-1.416;2023-08-21T02:57:26;101676.16;;;17.36;100.00
28448;BME280;15675;52.870;-1.416;2023-08-21T02:59:52;101672.53;;;17.46;100.00
28448;BME280;15675;52.870;-1.416;2023-08-21T03:02:18;101669.72;;;17.65;100.00
28448;BME280;15675;52.870;-1.416;2023-08-21T03:04:44;101671.97;;;18.02;100.00
28448;BME280;15675;52.870;-1.416;2023-08-21T03:07:09;101670.09;;;18.08;100.00
28448;BME280;15675;52.870;-1.416;2023-08-21T03:09:36;101669.22;;;18.09;100.00
28448;BME280;15675;52.870;-1.416;2023-08-21T03:12:02;101659.72;;;17.99;100.00
28448;BME280;15675;52.870;-1.416;2023-08-21T03:14:27;101664.03;;;18.05;100.00
28448;BME280;15675;52.870;-1.416;2023-08-21T03:16:53;101659.59;;;18.08;100.00
28448;BME280;15675;52.870;-1.416;2023-08-21T03:19:18;101661.31;;;18.11;100.00
28448;BME280;15675;52.870;-1.416;2023-08-21T03:21:44;101666.28;;;18.33;100.00
28448;BME280;15675;52.870;-1.416;2023-08-21T03:24:09;101657.31;;;18.49;100.00
28448;BME280;15675;52.870;-1.416;2023-08-21T03:26:35;101667.72;;;17.87;100.00
28448;BME280;15675;52.870;-1.416;2023-08-21T03:29:01;101661.47;;;18.02;100.00
28448;BME280;15675;52.870;-1.416;2023-08-21T03:31:26;101661.59;;;17.88;100.00
28448;BME280;15675;52.870;-1.416;2023-08-21T03:33:52;101663.00;;;18.17;100.00
28448;BME280;15675;52.870;-1.416;2023-08-21T03:36:18;101651.72;;;18.10;100.00
28448;BME280;15675;52.870;-1.416;2023-08-21T03:38:44;101655.44;;;17.89;100.00
28448;BME280;15675;52.870;-1.416;2023-08-21T03:41:11;101658.94;;;17.89;100.00
28448;BME280;15675;52.870;-1.416;2023-08-21T03:43:36;101656.47;;;17.75;100.00
28448;BME280;15675;52.870;-1.416;2023-08-21T03:46:02;101660.00;;;17.71;100.00
28448;BME280;15675;52.870;-1.416;2023-08-21T03:48:28;101655.00;;;17.50;100.00
28448;BME280;15675;52.870;-1.416;2023-08-21T03:50:53;101655.59;;;17.75;100.00
28448;BME280;15675;52.870;-1.416;2023-08-21T03:53:19;101657.44;;;17.67;100.00
28448;BME280;15675;52.870;-1.416;2023-08-21T03:55:45;101657.78;;;17.33;100.00
28448;BME280;15675;52.870;-1.416;2023-08-21T03:58:10;101665.22;;;17.76;100.00
28448;BME280;15675;52.870;-1.416;2023-08-21T04:00:36;101650.22;;;17.90;99.54
28448;BME280;15675;52.870;-1.416;2023-08-21T04:03:02;101654.59;;;17.87;97.35
28448;BME280;15675;52.870;-1.416;2023-08-21T04:05:28;101659.38;;;17.51;98.93
28448;BME280;15675;52.870;-1.416;2023-08-21T04:07:53;101652.56;;;17.30;100.00
28448;BME280;15675;52.870;-1.416;2023-08-21T04:10:19;101652.72;;;17.14;100.00
28448;BME280;15675;52.870;-1.416;2023-08-21T04:12:44;101650.88;;;17.24;100.00
28448;BME280;15675;52.870;-1.416;2023-08-21T04:15:10;101654.13;;;17.51;99.22
28448;BME280;15675;52.870;-1.416;2023-08-21T04:17:35;101652.16;;;17.73;95.11
28448;BME280;15675;52.870;-1.416;2023-08-21T04:20:01;101647.63;;;17.86;91.73
28448;BME280;15675;52.870;-1.416;2023-08-21T04:22:26;101647.53;;;17.93;89.11
28448;BME280;15675;52.870;-1.416;2023-08-21T04:24:52;101647.56;;;17.89;88.19
28448;BME280;15675;52.870;-1.416;2023-08-21T04:27:17;101652.91;;;17.80;89.13
28448;BME280;15675;52.870;-1.416;2023-08-21T04:29:43;101645.69;;;18.03;90.86
28448;BME280;15675;52.870;-1.416;2023-08-21T04:32:08;101649.06;;;18.13;89.13
28448;BME280;15675;52.870;-1.416;2023-08-21T04:34:34;101649.53;;;17.68;88.30
28448;BME280;15675;52.870;-1.416;2023-08-21T04:37:00;101661.13;;;17.50;90.81
28448;BME280;15675;52.870;-1.416;2023-08-21T04:39:26;101655.56;;;17.78;89.95
28448;BME280;15675;52.870;-1.416;2023-08-21T04:41:51;101656.47;;;17.79;87.86
28448;BME280;15675;52.870;-1.416;2023-08-21T04:44:17;101657.41;;;17.70;85.96
28448;BME280;15675;52.870;-1.416;2023-08-21T04:46:43;101652.41;;;17.47;84.07
28448;BME280;15675;52.870;-1.416;2023-08-21T04:49:08;101652.53;;;17.33;82.47
28448;BME280;15675;52.870;-1.416;2023-08-21T04:51:34;101652.47;;;17.42;82.50
28448;BME280;15675;52.870;-1.416;2023-08-21T04:54:00;101658.50;;;17.52;82.01
28448;BME280;15675;52.870;-1.416;2023-08-21T04:56:26;101646.13;;;17.63;81.63
28448;BME280;15675;52.870;-1.416;2023-08-21T04:58:52;101660.19;;;17.57;82.27
28448;BME280;15675;52.870;-1.416;2023-08-21T05:01:18;101654.78;;;17.68;83.00
28448;BME280;15675;52.870;-1.416;2023-08-21T05:03:43;101655.59;;;17.75;82.97
28448;BME280;15675;52.870;-1.416;2023-08-21T05:06:09;101656.47;;;17.79;84.39
28448;BME280;15675;52.870;-1.416;2023-08-21T05:08:34;101661.63;;;17.85;84.80
28448;BME280;15675;52.870;-1.416;2023-08-21T05:11:01;101662.47;;;17.85;83.87
28448;BME280;15675;52.870;-1.416;2023-08-21T05:13:27;101650.28;;;17.81;82.65
28448;BME280;15675;52.870;-1.416;2023-08-21T05:15:54;101655.53;;;17.84;82.60
28448;BME280;15675;52.870;-1.416;2023-08-21T05:18:20;101653.81;;;17.80;81.98
28448;BME280;15675;52.870;-1.416;2023-08-21T05:20:47;101651.22;;;17.74;81.15
28448;BME280;15675;52.870;-1.416;2023-08-21T05:23:13;101655.53;;;17.80;81.48
28448;BME280;15675;52.870;-1.416;2023-08-21T05:25:38;101646.78;;;17.81;81.40
28448;BME280;15675;52.870;-1.416;2023-08-21T05:28:05;101652.94;;;17.78;81.86
28448;BME280;15675;52.870;-1.416;2023-08-21T05:30:30;101656.63;;;17.63;82.93
28448;BME280;15675;52.870;-1.416;2023-08-21T05:32:57;101657.28;;;17.81;83.56
28448;BME280;15675;52.870;-1.416;2023-08-21T05:35:22;101657.41;;;17.68;81.91
28448;BME280;15675;52.870;-1.416;2023-08-21T05:37:48;101662.03;;;17.48;85.13
28448;BME280;15675;52.870;-1.416;2023-08-21T05:40:14;101661.94;;;17.55;87.86
28448;BME280;15675;52.870;-1.416;2023-08-21T05:42:39;101668.09;;;17.54;91.59
28448;BME280;15675;52.870;-1.416;2023-08-21T05:45:05;101668.84;;;17.64;96.28
28448;BME280;15675;52.870;-1.416;2023-08-21T05:47:31;101673.16;;;17.70;100.00
28448;BME280;15675;52.870;-1.416;2023-08-21T05:49:57;101679.03;;;17.95;100.00
28448;BME280;15675;52.870;-1.416;2023-08-21T05:52:22;101680.19;;;17.68;100.00
28448;BME280;15675;52.870;-1.416;2023-08-21T05:54:48;101680.13;;;17.72;100.00
28448;BME280;15675;52.870;-1.416;2023-08-21T05:57:14;101685.38;;;17.72;100.00
28448;BME280;15675;52.870;-1.416;2023-08-21T05:59:46;101682.25;;;18.19;100.00
28448;BME280;15675;52.870;-1.416;2023-08-21T06:02:15;101683.00;;;18.28;100.00
28448;BME280;15675;52.870;-1.416;2023-08-21T06:04:41;101681.78;;;18.54;100.00
28448;BME280;15675;52.870;-1.416;2023-08-21T06:07:07;101685.28;;;18.55;100.00
28448;BME280;15675;52.870;-1.416;2023-08-21T06:09:33;101690.56;;;18.52;100.00
28448;BME280;15675;52.870;-1.416;2023-08-21T06:12:00;101688.56;;;18.69;100.00
28448;BME280;15675;52.870;-1.416;2023-08-21T06:14:26;101690.41;;;19.22;100.00
28448;BME280;15675;52.870;-1.416;2023-08-21T06:17:02;101688.34;;;18.85;100.00
28448;BME280;15675;52.870;-1.416;2023-08-21T06:19:28;101686.25;;;19.07;100.00
28448;BME280;15675;52.870;-1.416;2023-08-21T06:21:55;101687.19;;;19.04;99.35
28448;BME280;15675;52.870;-1.416;2023-08-21T06:24:21;101689.88;;;19.01;100.00
28448;BME280;15675;52.870;-1.416;2023-08-21T06:26:47;101692.06;;;18.71;100.00
28448;BME280;15675;52.870;-1.416;2023-08-21T06:29:12;101698.81;;;18.89;100.00
28448;BME280;15675;52.870;-1.416;2023-08-21T06:31:38;101688.47;;;18.74;100.00
28448;BME280;15675;52.870;-1.416;2023-08-21T06:34:04;101698.22;;;18.69;100.00
28448;BME280;15675;52.870;-1.416;2023-08-21T06:36:29;101692.19;;;18.60;100.00
28448;BME280;15675;52.870;-1.416;2023-08-21T06:38:55;101705.00;;;18.18;100.00
28448;BME280;15675;52.870;-1.416;2023-08-21T06:41:21;101706.63;;;18.92;100.00
28448;BME280;15675;52.870;-1.416;2023-08-21T06:43:46;101702.31;;;19.43;100.00
28448;BME280;15675;52.870;-1.416;2023-08-21T06:46:13;101701.38;;;19.95;100.00
28448;BME280;15675;52.870;-1.416;2023-08-21T06:48:39;101702.09;;;20.02;99.09
28448;BME280;15675;52.870;-1.416;2023-08-21T06:51:09;101699.59;;;19.96;97.31
28448;BME280;15675;52.870;-1.416;2023-08-21T06:53:34;101691.88;;;19.37;97.84
28448;BME280;15675;52.870;-1.416;2023-08-21T06:56:00;101699.03;;;19.30;100.00
28448;BME280;15675;52.870;-1.416;2023-08-21T06:58:26;101700.13;;;19.17;100.00
28448;BME280;15675;52.870;-1.416;2023-08-21T07:00:53;101706.72;;;19.41;100.00
28448;BME280;15675;52.870;-1.416;2023-08-21T07:03:19;101705.41;;;19.65;100.00
28448;BME280;15675;52.870;-1.416;2023-08-21T07:05:59;101702.97;;;19.04;100.00
28448;BME280;15675;52.870;-1.416;2023-08-21T07:08:25;101704.53;;;19.16;100.00
28448;BME280;15675;52.870;-1.416;2023-08-21T07:10:51;101703.69;;;19.12;100.00
28448;BME280;15675;52.870;-1.416;2023-08-21T07:13:17;101708.28;;;19.00;100.00
28448;BME280;15675;52.870;-1.416;2023-08-21T07:15:42;101702.22;;;18.96;100.00
28448;BME280;15675;52.870;-1.416;2023-08-21T07:18:08;101712.16;;;18.72;100.00
28448;BME280;15675;52.870;-1.416;2023-08-21T07:20:34;101705.13;;;18.76;100.00
28448;BME280;15675;52.870;-1.416;2023-08-21T07:23:00;101707.59;;;18.88;100.00
28448;BME280;15675;52.870;-1.416;2023-08-21T07:25:26;101704.47;;;19.19;100.00
28448;BME280;15675;52.870;-1.416;2023-08-21T07:27:53;101705.28;;;19.24;100.00
28448;BME280;15675;52.870;-1.416;2023-08-21T07:30:18;101705.53;;;19.07;100.00
28448;BME280;15675;52.870;-1.416;2023-08-21T07:32:45;101707.19;;;19.14;100.00
28448;BME280;15675;52.870;-1.416;2023-08-21T07:35:11;101702.56;;;19.29;100.00
28448;BME280;15675;52.870;-1.416;2023-08-21T07:37:37;101710.91;;;19.00;100.00
28448;BME280;15675;52.870;-1.416;2023-08-21T07:40:04;101707.66;;;19.37;100.00
28448;BME280;15675;52.870;-1.416;2023-08-21T07:42:30;101706.69;;;19.44;100.00
28448;BME280;15675;52.870;-1.416;2023-08-21T07:44:55;101706.38;;;19.59;100.00
28448;BME280;15675;52.870;-1.416;2023-08-21T07:47:21;101715.84;;;19.71;100.00
28448;BME280;15675;52.870;-1.416;2023-08-21T07:49:46;101711.97;;;19.91;100.00
28448;BME280;15675;52.870;-1.416;2023-08-21T07:52:12;101712.19;;;19.80;100.00
28448;BME280;15675;52.870;-1.416;2023-08-21T07:54:37;101707.66;;;19.38;100.00
28448;BME280;15675;52.870;-1.416;2023-08-21T07:57:03;101704.81;;;19.97;100.00
28448;BME280;15675;52.870;-1.416;2023-08-21T07:59:29;101703.75;;;19.59;100.00
28448;BME280;15675;52.870;-1.416;2023-08-21T08:01:55;101703.97;;;19.48;100.00
28448;BME280;15675;52.870;-1.416;2023-08-21T08:04:21;101705.94;;;19.37;100.00
28448;BME280;15675;52.870;-1.416;2023-08-21T08:06:46;101709.28;;;19.47;100.00
28448;BME280;15675;52.870;-1.416;2023-08-21T08:09:12;101703.41;;;19.79;100.00
28448;BME280;15675;52.870;-1.416;2023-08-21T08:11:38;101703.94;;;19.98;100.00
28448;BME280;15675;52.870;-1.416;2023-08-21T08:14:03;101691.31;;;19.67;100.00
28448;BME280;15675;52.870;-1.416;2023-08-21T08:16:29;101700.09;;;19.68;100.00
28448;BME280;15675;52.870;-1.416;2023-08-21T08:18:54;101694.22;;;19.52;100.00
28448;BME280;15675;52.870;-1.416;2023-08-21T08:21:20;101697.94;;;19.90;100.00
28448;BME280;15675;52.870;-1.416;2023-08-21T08:23:46;101700.66;;;19.87;100.00
28448;BME280;15675;52.870;-1.416;2023-08-21T08:26:11;101697.81;;;19.96;100.00
28448;BME280;15675;52.870;-1.416;2023-08-21T08:28:37;101698.34;;;20.14;100.00
28448;BME280;15675;52.870;-1.416;2023-08-21T08:31:02;101694.16;;;20.04;100.00
28448;BME280;15675;52.870;-1.416;2023-08-21T08:33:28;101695.44;;;20.26;100.00
28448;BME280;15675;52.870;-1.416;2023-08-21T08:35:53;101691.09;;;20.25;100.00
28448;BME280;15675;52.870;-1.416;2023-08-21T08:38:19;101686.78;;;20.21;100.00
28448;BME280;15675;52.870;-1.416;2023-08-21T08:40:46;101685.28;;;20.50;100.00
28448;BME280;15675;52.870;-1.416;2023-08-21T08:43:12;101687.03;;;20.09;100.00
28448;BME280;15675;52.870;-1.416;2023-08-21T08:45:40;101691.03;;;20.28;100.00
28448;BME280;15675;52.870;-1.416;2023-08-21T08:48:06;101690.72;;;20.41;100.00
28448;BME280;15675;52.870;-1.416;2023-08-21T08:50:32;101680.69;;;20.58;100.00
28448;BME280;15675;52.870;-1.416;2023-08-21T08:52:58;101675.06;;;20.75;100.00
28448;BME280;15675;52.870;-1.416;2023-08-21T08:55:25;101683.75;;;20.40;100.00
28448;BME280;15675;52.870;-1.416;2023-08-21T08:57:51;101694.63;;;21.02;100.00
28448;BME280;15675;52.870;-1.416;2023-08-21T09:00:17;101697.41;;;20.96;100.00
28448;BME280;15675;52.870;-1.416;2023-08-21T09:02:42;101696.19;;;21.10;99.84
28448;BME280;15675;52.870;-1.416;2023-08-21T09:05:08;101681.38;;;20.66;98.38
28448;BME280;15675;52.870;-1.416;2023-08-21T09:07:35;101684.91;;;20.67;97.72
28448;BME280;15675;52.870;-1.416;2023-08-21T09:10:01;101683.91;;;20.73;95.18
28448;BME280;15675;52.870;-1.416;2023-08-21T09:12:27;101684.28;;;20.93;94.60
28448;BME280;15675;52.870;-1.416;2023-08-21T09:14:52;101687.00;;;21.25;94.29
28448;BME280;15675;52.870;-1.416;2023-08-21T09:17:18;101694.97;;;21.23;92.86
28448;BME280;15675;52.870;-1.416;2023-08-21T09:19:43;101680.63;;;20.99;92.22
28448;BME280;15675;52.870;-1.416;2023-08-21T09:22:15;101674.00;;;20.82;90.92
28448;BME280;15675;52.870;-1.416;2023-08-21T09:25:00;101686.91;;;20.93;91.33
28448;BME280;15675;52.870;-1.416;2023-08-21T09:27:26;101676.72;;;20.79;90.92
28448;BME280;15675;52.870;-1.416;2023-08-21T09:29:51;101679.25;;;21.18;90.08
28448;BME280;15675;52.870;-1.416;2023-08-21T09:32:18;101675.81;;;21.15;87.58
28448;BME280;15675;52.870;-1.416;2023-08-21T09:34:43;101667.19;;;20.74;87.92
28448;BME280;15675;52.870;-1.416;2023-08-21T09:37:10;101678.41;;;20.82;90.16
28448;BME280;15675;52.870;-1.416;2023-08-21T09:39:36;101676.59;;;20.45;89.50
28448;BME280;15675;52.870;-1.416;2023-08-21T09:42:08;101665.31;;;20.77;89.84
28448;BME280;15675;52.870;-1.416;2023-08-21T09:44:39;101675.44;;;21.30;91.04
28448;BME280;15675;52.870;-1.416;2023-08-21T09:47:11;101670.44;;;21.85;88.04
28448;BME280;15675;52.870;-1.416;2023-08-21T09:49:38;101665.78;;;21.95;85.09
28448;BME280;15675;52.870;-1.416;2023-08-21T09:52:08;101661.53;;;21.58;81.55
28448;BME280;15675;52.870;-1.416;2023-08-21T09:54:37;101670.94;;;21.68;81.19
28448;BME280;15675;52.870;-1.416;2023-08-21T09:57:04;101670.16;;;21.96;82.58
28448;BME280;15675;52.870;-1.416;2023-08-21T09:59:33;101665.50;;;22.34;80.65
28448;BME280;15675;52.870;-1.416;2023-08-21T10:02:00;101665.97;;;21.89;76.93
28448;BME280;15675;52.870;-1.416;2023-08-21T10:04:28;101669.19;;;21.99;77.79
28448;BME280;15675;52.870;-1.416;2023-08-21T10:06:55;101671.19;;;21.91;77.27
28448;BME280;15675;52.870;-1.416;2023-08-21T10:09:23;101651.56;;;21.99;77.37
28448;BME280;15675;52.870;-1.416;2023-08-21T10:11:49;101657.66;;;22.01;77.34
28448;BME280;15675;52.870;-1.416;2023-08-21T10:14:16;101654.13;;;21.71;77.46
28448;BME280;15675;52.870;-1.416;2023-08-21T10:16:42;101653.16;;;22.05;77.37
28448;BME280;15675;52.870;-1.416;2023-08-21T10:19:07;101656.94;;;22.26;77.15
28448;BME280;15675;52.870;-1.416;2023-08-21T10:21:36;101659.59;;;21.96;77.44
28448;BME280;15675;52.870;-1.416;2023-08-21T10:24:05;101648.88;;;22.01;77.73
28448;BME280;15675;52.870;-1.416;2023-08-21T10:26:30;101651.19;;;22.41;77.18
28448;BME280;15675;52.870;-1.416;2023-08-21T10:29:00;101631.97;;;22.06;75.53
28448;BME280;15675;52.870;-1.416;2023-08-21T10:31:28;101648.06;;;22.27;76.58
28448;BME280;15675;52.870;-1.416;2023-08-21T10:33:54;101639.41;;;22.79;78.02
28448;BME280;15675;52.870;-1.416;2023-08-21T10:39:13;101629.31;;;22.36;74.39
28448;BME280;15675;52.870;-1.416;2023-08-21T10:41:39;101635.13;;;22.76;74.38
28448;BME280;15675;52.870;-1.416;2023-08-21T10:44:06;101631.63;;;22.74;71.21
28448;BME280;15675;52.870;-1.416;2023-08-21T10:46:52;101632.94;;;22.34;70.81
28448;BME280;15675;52.870;-1.416;2023-08-21T10:49:18;101629.47;;;22.30;71.24
28448;BME280;15675;52.870;-1.416;2023-08-21T10:51:44;101636.44;;;22.89;73.00
28448;BME280;15675;52.870;-1.416;2023-08-21T10:54:15;101628.28;;;22.69;69.53
28448;BME280;15675;52.870;-1.416;2023-08-21T10:56:41;101620.59;;;22.61;68.52
28448;BME280;15675;52.870;-1.416;2023-08-21T10:59:07;101627.91;;;23.06;68.80
28448;BME280;15675;52.870;-1.416;2023-08-21T11:01:44;101621.53;;;23.63;69.23
28448;BME280;15675;52.870;-1.416;2023-08-21T11:04:13;101612.88;;;22.82;66.64
28448;BME280;15675;52.870;-1.416;2023-08-21T11:06:39;101614.34;;;22.64;67.30
28448;BME280;15675;52.870;-1.416;2023-08-21T11:09:05;101618.84;;;22.33;66.55
28448;BME280;15675;52.870;-1.416;2023-08-21T11:11:31;101619.88;;;22.56;68.03
28448;BME280;15675;52.870;-1.416;2023-08-21T11:13:56;101618.22;;;21.95;70.19
28448;BME280;15675;52.870;-1.416;2023-08-21T11:16:22;101608.13;;;22.38;70.68
28448;BME280;15675;52.870;-1.416;2023-08-21T11:18:50;101606.09;;;22.46;71.21
28448;BME280;15675;52.870;-1.416;2023-08-21T11:21:15;101611.66;;;23.19;70.29
28448;BME280;15675;52.870;-1.416;2023-08-21T11:23:41;101600.41;;;23.37;65.42
28448;BME280;15675;52.870;-1.416;2023-08-21T11:26:11;101597.94;;;23.06;64.85
28448;BME280;15675;52.870;-1.416;2023-08-21T11:28:38;101599.94;;;22.99;65.46
28448;BME280;15675;52.870;-1.416;2023-08-21T11:31:05;101602.97;;;23.39;66.29
28448;BME280;15675;52.870;-1.416;2023-08-21T11:33:31;101586.31;;;23.12;64.63
28448;BME280;15675;52.870;-1.416;2023-08-21T11:35:57;101597.69;;;23.14;65.03
28448;BME280;15675;52.870;-1.416;2023-08-21T11:38:26;101606.84;;;23.29;64.27
28448;BME280;15675;52.870;-1.416;2023-08-21T11:40:59;101606.19;;;23.23;64.62
28448;BME280;15675;52.870;-1.416;2023-08-21T11:43:35;101603.25;;;23.04;64.52
28448;BME280;15675;52.870;-1.416;2023-08-21T11:46:05;101602.81;;;23.18;64.48
28448;BME280;15675;52.870;-1.416;2023-08-21T11:48:31;101601.63;;;23.27;64.78
28448;BME280;15675;52.870;-1.416;2023-08-21T11:50:57;101605.81;;;23.07;64.94
28448;BME280;15675;52.870;-1.416;2023-08-21T11:53:35;101612.16;;;23.29;65.02
28448;BME280;15675;52.870;-1.416;2023-08-21T11:56:01;101597.16;;;23.76;65.89
28448;BME280;15675;52.870;-1.416;2023-08-21T11:58:27;101605.38;;;23.70;65.33
28448;BME280;15675;52.870;-1.416;2023-08-21T12:01:03;101604.25;;;23.52;64.66
28448;BME280;15675;52.870;-1.416;2023-08-21T12:03:29;101594.81;;;23.45;65.88
28448;BME280;15675;52.870;-1.416;2023-08-21T12:05:55;101596.25;;;23.77;66.45
28448;BME280;15675;52.870;-1.416;2023-08-21T12:08:20;101594.66;;;23.73;65.61
28448;BME280;15675;52.870;-1.416;2023-08-21T12:10:50;101601.06;;;23.91;65.89
28448;BME280;15675;52.870;-1.416;2023-08-21T12:13:15;101600.63;;;24.02;64.73
28448;BME280;15675;52.870;-1.416;2023-08-21T12:15:41;101592.44;;;23.61;63.34
28448;BME280;15675;52.870;-1.416;2023-08-21T12:18:06;101595.09;;;23.85;64.92
28448;BME280;15675;52.870;-1.416;2023-08-21T12:20:32;101600.31;;;23.88;65.23
28448;BME280;15675;52.870;-1.416;2023-08-21T12:22:59;101594.94;;;23.89;64.90
28448;BME280;15675;52.870;-1.416;2023-08-21T12:25:24;101588.81;;;23.40;63.95
28448;BME280;15675;52.870;-1.416;2023-08-21T12:27:50;101587.00;;;22.90;65.19
28448;BME280;15675;52.870;-1.416;2023-08-21T12:30:15;101598.84;;;23.32;65.90
28448;BME280;15675;52.870;-1.416;2023-08-21T12:32:41;101593.38;;;23.09;66.40
28448;BME280;15675;52.870;-1.416;2023-08-21T12:35:07;101596.06;;;23.35;66.96